BBQ3645 KPHX-KLAX
Flight info
| Callsign | BBQ3645 |
|---|---|
| Flight time | 0h 56m |
| Altitude | 28000 |
| Route | KEENS3 WLVRN ESTWD HLYWD1 |
| Aircraft | B738/M-SDE2E3FGHIRWXY/LB1 |
Departure
| Time | 2026-04-25 04:50 |
|---|---|
| Airport | Phoenix Sky Harbor International Airport (KPHX) |
Arrival
| Time | 2026-04-25 05:46 |
|---|---|
| Airport | Los Angeles International Airport (KLAX) |
| Time | Latitude | Longitude | Altitude | Speed | Heading |
|---|---|---|---|---|---|
| 2026-04-25 04:30 | 33.43426 | -112.02584 | 1123 ft | 0 kts | 360° |
| 2026-04-25 04:38 | 33.43421 | -112.02584 | 1123 ft | 2 kts | 360° |
| 2026-04-25 04:38 | 33.43405 | -112.02584 | 1116 ft | 2 kts | 360° |
| 2026-04-25 04:38 | 33.43389 | -112.02584 | 1119 ft | 2 kts | 360° |
| 2026-04-25 04:39 | 33.43372 | -112.02584 | 1123 ft | 2 kts | 13° |
| 2026-04-25 04:39 | 33.43358 | -112.02592 | 1113 ft | 2 kts | 75° |
| 2026-04-25 04:39 | 33.43357 | -112.02602 | 1123 ft | 1 kts | 92° |
| 2026-04-25 04:41 | 33.43357 | -112.02601 | 1123 ft | 1 kts | 92° |
| 2026-04-25 04:41 | 33.43356 | -112.02574 | 1123 ft | 7 kts | 92° |
| 2026-04-25 04:41 | 33.43325 | -112.02526 | 1120 ft | 8 kts | 148° |
| 2026-04-25 04:42 | 33.43290 | -112.02483 | 1114 ft | 8 kts | 102° |
| 2026-04-25 04:42 | 33.43288 | -112.02422 | 1124 ft | 7 kts | 90° |
| 2026-04-25 04:42 | 33.43287 | -112.02346 | 1124 ft | 14 kts | 90° |
| 2026-04-25 04:42 | 33.43288 | -112.02230 | 1115 ft | 14 kts | 90° |
| 2026-04-25 04:43 | 33.43288 | -112.02120 | 1116 ft | 13 kts | 90° |
| 2026-04-25 04:43 | 33.43288 | -112.02013 | 1114 ft | 13 kts | 90° |
| 2026-04-25 04:43 | 33.43288 | -112.01909 | 1117 ft | 12 kts | 90° |
| 2026-04-25 04:43 | 33.43287 | -112.01807 | 1114 ft | 12 kts | 89° |
| 2026-04-25 04:44 | 33.43288 | -112.01708 | 1123 ft | 12 kts | 90° |
| 2026-04-25 04:44 | 33.43288 | -112.01593 | 1123 ft | 17 kts | 90° |
| 2026-04-25 04:44 | 33.43288 | -112.01451 | 1123 ft | 17 kts | 90° |
| 2026-04-25 04:44 | 33.43288 | -112.01313 | 1123 ft | 16 kts | 90° |
| 2026-04-25 04:45 | 33.43288 | -112.01133 | 1123 ft | 25 kts | 90° |
| 2026-04-25 04:45 | 33.43287 | -112.00929 | 1123 ft | 23 kts | 90° |
| 2026-04-25 04:45 | 33.43287 | -112.00739 | 1119 ft | 23 kts | 90° |
| 2026-04-25 04:45 | 33.43287 | -112.00553 | 1124 ft | 22 kts | 90° |
| 2026-04-25 04:46 | 33.43282 | -112.00373 | 1122 ft | 21 kts | 89° |
| 2026-04-25 04:46 | 33.43283 | -112.00199 | 1115 ft | 21 kts | 90° |
| 2026-04-25 04:46 | 33.43283 | -112.00029 | 1114 ft | 20 kts | 90° |
| 2026-04-25 04:46 | 33.43282 | -111.99854 | 1121 ft | 22 kts | 90° |
| 2026-04-25 04:47 | 33.43282 | -111.99675 | 1120 ft | 21 kts | 90° |
| 2026-04-25 04:47 | 33.43282 | -111.99502 | 1120 ft | 20 kts | 90° |
| 2026-04-25 04:47 | 33.43283 | -111.99335 | 1121 ft | 20 kts | 90° |
| 2026-04-25 04:47 | 33.43254 | -111.99250 | 1116 ft | 10 kts | 163° |
| 2026-04-25 04:48 | 33.43191 | -111.99283 | 1113 ft | 10 kts | 220° |
| 2026-04-25 04:48 | 33.43138 | -111.99336 | 1120 ft | 10 kts | 220° |
| 2026-04-25 04:48 | 33.43105 | -111.99401 | 1122 ft | 7 kts | 268° |
| 2026-04-25 04:48 | 33.43105 | -111.99410 | 1122 ft | 0 kts | 268° |
| 2026-04-25 04:49 | 33.43104 | -111.99429 | 1122 ft | 8 kts | 267° |
| 2026-04-25 04:49 | 33.43104 | -111.99790 | 1123 ft | 81 kts | 270° |
| 2026-04-25 04:49 | 33.43103 | -112.00742 | 1125 ft | 146 kts | 269° |
| 2026-04-25 04:49 | 33.43094 | -112.02102 | 1453 ft | 174 kts | 269° |
| 2026-04-25 04:50 | 33.43082 | -112.03574 | 2305 ft | 178 kts | 268° |
| 2026-04-25 04:50 | 33.43053 | -112.05141 | 2827 ft | 204 kts | 267° |
| 2026-04-25 04:50 | 33.42976 | -112.06985 | 2935 ft | 238 kts | 262° |
| 2026-04-25 04:50 | 33.42476 | -112.08983 | 3210 ft | 263 kts | 248° |
| 2026-04-25 04:51 | 33.41780 | -112.11050 | 3968 ft | 271 kts | 248° |
| 2026-04-25 04:51 | 33.41086 | -112.13138 | 5019 ft | 271 kts | 248° |
| 2026-04-25 04:51 | 33.40408 | -112.15263 | 5945 ft | 275 kts | 249° |
| 2026-04-25 04:51 | 33.39755 | -112.17405 | 6980 ft | 274 kts | 250° |
| 2026-04-25 04:52 | 33.39200 | -112.19584 | 7808 ft | 276 kts | 263° |
| 2026-04-25 04:52 | 33.39315 | -112.21879 | 8687 ft | 277 kts | 277° |
| 2026-04-25 04:52 | 33.39637 | -112.24168 | 9550 ft | 281 kts | 279° |
| 2026-04-25 04:52 | 33.39996 | -112.26470 | 10454 ft | 281 kts | 278° |
| 2026-04-25 04:53 | 33.40364 | -112.28818 | 11030 ft | 297 kts | 278° |
| 2026-04-25 04:53 | 33.40754 | -112.31357 | 11222 ft | 322 kts | 277° |
| 2026-04-25 04:53 | 33.41168 | -112.34092 | 11398 ft | 345 kts | 277° |
| 2026-04-25 04:53 | 33.41606 | -112.37006 | 11559 ft | 366 kts | 277° |
| 2026-04-25 04:54 | 33.42064 | -112.40074 | 11813 ft | 380 kts | 277° |
| 2026-04-25 04:54 | 33.42525 | -112.43170 | 12344 ft | 385 kts | 277° |
| 2026-04-25 04:54 | 33.42997 | -112.46356 | 13023 ft | 386 kts | 277° |
| 2026-04-25 04:54 | 33.43465 | -112.49524 | 13688 ft | 387 kts | 277° |
| 2026-04-25 04:55 | 33.43934 | -112.52707 | 14318 ft | 388 kts | 277° |
| 2026-04-25 04:55 | 33.44395 | -112.55856 | 14910 ft | 390 kts | 277° |
| 2026-04-25 04:55 | 33.44865 | -112.59070 | 15451 ft | 393 kts | 277° |
| 2026-04-25 04:55 | 33.45186 | -112.62320 | 16019 ft | 393 kts | 271° |
| 2026-04-25 04:56 | 33.45229 | -112.65596 | 16594 ft | 393 kts | 268° |
| 2026-04-25 04:56 | 33.45196 | -112.68876 | 17130 ft | 395 kts | 268° |
| 2026-04-25 04:56 | 33.45186 | -112.72184 | 17649 ft | 397 kts | 269° |
| 2026-04-25 04:56 | 33.45212 | -112.75512 | 18135 ft | 399 kts | 269° |
| 2026-04-25 04:57 | 33.45285 | -112.78805 | 18607 ft | 402 kts | 273° |
| 2026-04-25 04:57 | 33.45906 | -112.82081 | 19063 ft | 408 kts | 287° |
| 2026-04-25 04:57 | 33.46998 | -112.85235 | 19547 ft | 410 kts | 290° |
| 2026-04-25 04:57 | 33.48132 | -112.88375 | 19937 ft | 413 kts | 290° |
| 2026-04-25 04:58 | 33.49277 | -112.91542 | 20362 ft | 415 kts | 290° |
| 2026-04-25 04:58 | 33.50415 | -112.94722 | 20780 ft | 416 kts | 289° |
| 2026-04-25 04:58 | 33.51548 | -112.97919 | 21143 ft | 418 kts | 289° |
| 2026-04-25 04:58 | 33.52680 | -113.01135 | 21514 ft | 420 kts | 289° |
| 2026-04-25 04:59 | 33.53812 | -113.04363 | 21873 ft | 421 kts | 289° |
| 2026-04-25 04:59 | 33.54944 | -113.07605 | 22240 ft | 421 kts | 289° |
| 2026-04-25 04:59 | 33.56074 | -113.10856 | 22567 ft | 423 kts | 289° |
| 2026-04-25 04:59 | 33.57208 | -113.14122 | 22876 ft | 425 kts | 289° |
| 2026-04-25 05:00 | 33.58347 | -113.17402 | 23165 ft | 426 kts | 289° |
| 2026-04-25 05:00 | 33.59492 | -113.20696 | 23454 ft | 428 kts | 289° |
| 2026-04-25 05:00 | 33.60639 | -113.23995 | 23760 ft | 429 kts | 289° |
| 2026-04-25 05:00 | 33.61787 | -113.27299 | 24051 ft | 430 kts | 289° |
| 2026-04-25 05:01 | 33.62922 | -113.30574 | 24304 ft | 431 kts | 289° |
| 2026-04-25 05:01 | 33.64074 | -113.33905 | 24572 ft | 432 kts | 289° |
| 2026-04-25 05:01 | 33.65227 | -113.37240 | 24839 ft | 433 kts | 289° |
| 2026-04-25 05:01 | 33.66382 | -113.40583 | 25123 ft | 434 kts | 289° |
| 2026-04-25 05:02 | 33.67535 | -113.43928 | 25424 ft | 433 kts | 289° |
| 2026-04-25 05:02 | 33.68687 | -113.47269 | 25802 ft | 431 kts | 288° |
| 2026-04-25 05:02 | 33.69828 | -113.50591 | 26217 ft | 429 kts | 288° |
| 2026-04-25 05:02 | 33.70960 | -113.53889 | 26698 ft | 424 kts | 288° |
| 2026-04-25 05:03 | 33.72088 | -113.57158 | 27103 ft | 423 kts | 288° |
| 2026-04-25 05:03 | 33.73212 | -113.60421 | 27483 ft | 421 kts | 288° |
| 2026-04-25 05:03 | 33.74322 | -113.63673 | 27805 ft | 419 kts | 288° |
| 2026-04-25 05:03 | 33.75428 | -113.66917 | 27820 ft | 419 kts | 288° |
| 2026-04-25 05:04 | 33.76526 | -113.70126 | 27838 ft | 419 kts | 288° |
| 2026-04-25 05:04 | 33.77633 | -113.73374 | 27826 ft | 420 kts | 288° |
| 2026-04-25 05:04 | 33.78744 | -113.76621 | 27824 ft | 421 kts | 288° |
| 2026-04-25 05:04 | 33.79860 | -113.79851 | 27829 ft | 417 kts | 288° |
| 2026-04-25 05:05 | 33.80956 | -113.83077 | 27824 ft | 416 kts | 288° |
| 2026-04-25 05:05 | 33.82043 | -113.86295 | 27809 ft | 415 kts | 288° |
| 2026-04-25 05:05 | 33.83132 | -113.89508 | 27814 ft | 414 kts | 288° |
| 2026-04-25 05:05 | 33.84214 | -113.92724 | 27814 ft | 414 kts | 288° |
| 2026-04-25 05:06 | 33.85296 | -113.95938 | 27816 ft | 415 kts | 288° |
| 2026-04-25 05:06 | 33.86364 | -113.99112 | 27802 ft | 415 kts | 288° |
| 2026-04-25 05:06 | 33.87447 | -114.02338 | 27803 ft | 416 kts | 288° |
| 2026-04-25 05:06 | 33.88540 | -114.05578 | 27805 ft | 416 kts | 287° |
| 2026-04-25 05:07 | 33.89633 | -114.08816 | 27797 ft | 419 kts | 288° |
| 2026-04-25 05:07 | 33.90678 | -114.12081 | 27772 ft | 415 kts | 282° |
| 2026-04-25 05:07 | 33.91309 | -114.15455 | 27806 ft | 414 kts | 278° |
| 2026-04-25 05:07 | 33.91861 | -114.18862 | 27802 ft | 415 kts | 278° |
| 2026-04-25 05:08 | 33.92412 | -114.22292 | 27789 ft | 416 kts | 278° |
| 2026-04-25 05:08 | 33.92968 | -114.25712 | 27791 ft | 417 kts | 278° |
| 2026-04-25 05:08 | 33.93527 | -114.29096 | 27798 ft | 417 kts | 278° |
| 2026-04-25 05:08 | 33.94092 | -114.32519 | 27803 ft | 415 kts | 278° |
| 2026-04-25 05:09 | 33.94666 | -114.35935 | 27803 ft | 416 kts | 278° |
| 2026-04-25 05:09 | 33.95249 | -114.39348 | 27812 ft | 417 kts | 278° |
| 2026-04-25 05:09 | 33.95833 | -114.42788 | 27808 ft | 417 kts | 278° |
| 2026-04-25 05:09 | 33.96414 | -114.46202 | 27808 ft | 416 kts | 278° |
| 2026-04-25 05:10 | 33.96985 | -114.49618 | 27802 ft | 416 kts | 278° |
| 2026-04-25 05:10 | 33.97361 | -114.51881 | 27794 ft | 416 kts | 278° |
| 2026-04-25 05:10 | 33.98115 | -114.56416 | 27797 ft | 417 kts | 278° |
| 2026-04-25 05:10 | 33.98685 | -114.59839 | 27796 ft | 417 kts | 278° |
| 2026-04-25 05:11 | 33.99256 | -114.63270 | 27801 ft | 417 kts | 278° |
| 2026-04-25 05:11 | 33.99825 | -114.66691 | 27801 ft | 417 kts | 278° |
| 2026-04-25 05:11 | 34.00394 | -114.70116 | 27809 ft | 417 kts | 278° |
| 2026-04-25 05:12 | 34.01342 | -114.75853 | 27801 ft | 416 kts | 278° |
| 2026-04-25 05:12 | 34.01908 | -114.79272 | 27800 ft | 416 kts | 278° |
| 2026-04-25 05:12 | 34.02472 | -114.82691 | 27807 ft | 416 kts | 278° |
| 2026-04-25 05:12 | 34.03029 | -114.86069 | 27805 ft | 416 kts | 278° |
| 2026-04-25 05:13 | 34.03592 | -114.89490 | 27805 ft | 416 kts | 278° |
| 2026-04-25 05:13 | 34.04153 | -114.92904 | 27810 ft | 415 kts | 278° |
| 2026-04-25 05:13 | 34.04713 | -114.96324 | 27818 ft | 415 kts | 278° |
| 2026-04-25 05:13 | 34.05273 | -114.99748 | 27815 ft | 415 kts | 278° |
| 2026-04-25 05:14 | 34.05831 | -115.03165 | 27812 ft | 415 kts | 278° |
| 2026-04-25 05:14 | 34.06387 | -115.06581 | 27812 ft | 415 kts | 278° |
| 2026-04-25 05:14 | 34.06944 | -115.10000 | 27815 ft | 415 kts | 278° |
| 2026-04-25 05:15 | 34.08056 | -115.16842 | 27814 ft | 415 kts | 278° |
| 2026-04-25 05:15 | 34.08609 | -115.20262 | 27810 ft | 414 kts | 278° |
| 2026-04-25 05:15 | 34.09153 | -115.23628 | 27821 ft | 415 kts | 278° |
| 2026-04-25 05:15 | 34.09705 | -115.27046 | 27834 ft | 415 kts | 278° |
| 2026-04-25 05:16 | 34.10254 | -115.30460 | 27830 ft | 415 kts | 278° |
| 2026-04-25 05:16 | 34.10804 | -115.33883 | 27828 ft | 415 kts | 278° |
| 2026-04-25 05:16 | 34.11353 | -115.37303 | 27837 ft | 415 kts | 278° |
| 2026-04-25 05:16 | 34.11903 | -115.40734 | 27845 ft | 416 kts | 278° |
| 2026-04-25 05:17 | 34.12451 | -115.44163 | 27844 ft | 416 kts | 278° |
| 2026-04-25 05:17 | 34.12999 | -115.47597 | 27850 ft | 416 kts | 278° |
| 2026-04-25 05:17 | 34.13546 | -115.51028 | 27860 ft | 417 kts | 278° |
| 2026-04-25 05:17 | 34.14093 | -115.54470 | 27862 ft | 417 kts | 278° |
| 2026-04-25 05:18 | 34.14639 | -115.57912 | 27861 ft | 418 kts | 278° |
| 2026-04-25 05:18 | 34.15179 | -115.61313 | 27874 ft | 418 kts | 278° |
| 2026-04-25 05:18 | 34.15724 | -115.64761 | 27865 ft | 418 kts | 278° |
| 2026-04-25 05:18 | 34.16230 | -115.68215 | 27871 ft | 417 kts | 275° |
| 2026-04-25 05:19 | 34.16228 | -115.71696 | 27877 ft | 415 kts | 263° |
| 2026-04-25 05:19 | 34.15852 | -115.75161 | 27880 ft | 415 kts | 262° |
| 2026-04-25 05:19 | 34.15481 | -115.78618 | 27888 ft | 415 kts | 263° |
| 2026-04-25 05:19 | 34.15127 | -115.82070 | 27889 ft | 415 kts | 263° |
| 2026-04-25 05:20 | 34.14784 | -115.85530 | 27890 ft | 415 kts | 263° |
| 2026-04-25 05:20 | 34.14447 | -115.88990 | 27893 ft | 415 kts | 263° |
| 2026-04-25 05:20 | 34.14112 | -115.92450 | 27899 ft | 415 kts | 263° |
| 2026-04-25 05:20 | 34.13776 | -115.95912 | 27904 ft | 415 kts | 263° |
| 2026-04-25 05:21 | 34.13437 | -115.99381 | 27906 ft | 416 kts | 263° |
| 2026-04-25 05:21 | 34.13097 | -116.02843 | 27905 ft | 416 kts | 263° |
| 2026-04-25 05:21 | 34.12756 | -116.06316 | 27918 ft | 416 kts | 263° |
| 2026-04-25 05:21 | 34.12415 | -116.09788 | 27915 ft | 416 kts | 263° |
| 2026-04-25 05:22 | 34.12078 | -116.13218 | 27926 ft | 416 kts | 263° |
| 2026-04-25 05:22 | 34.11735 | -116.16684 | 27907 ft | 416 kts | 263° |
| 2026-04-25 05:22 | 34.11391 | -116.20164 | 27655 ft | 417 kts | 263° |
| 2026-04-25 05:22 | 34.11046 | -116.23635 | 27401 ft | 417 kts | 263° |
| 2026-04-25 05:23 | 34.10716 | -116.26955 | 27167 ft | 418 kts | 263° |
| 2026-04-25 05:23 | 34.10367 | -116.30436 | 26842 ft | 420 kts | 263° |
| 2026-04-25 05:23 | 34.09996 | -116.33962 | 26051 ft | 428 kts | 263° |
| 2026-04-25 05:23 | 34.09578 | -116.37522 | 24866 ft | 428 kts | 262° |
| 2026-04-25 05:24 | 34.09140 | -116.41090 | 23813 ft | 429 kts | 263° |
| 2026-04-25 05:24 | 34.08792 | -116.44560 | 23879 ft | 406 kts | 263° |
| 2026-04-25 05:24 | 34.08469 | -116.47905 | 23911 ft | 397 kts | 263° |
| 2026-04-25 05:24 | 34.08141 | -116.51158 | 23899 ft | 384 kts | 263° |
| 2026-04-25 05:25 | 34.07810 | -116.54291 | 23913 ft | 368 kts | 263° |
| 2026-04-25 05:25 | 34.07486 | -116.57298 | 23913 ft | 356 kts | 263° |
| 2026-04-25 05:25 | 34.07177 | -116.60218 | 23772 ft | 348 kts | 263° |
| 2026-04-25 05:25 | 34.06904 | -116.63106 | 23386 ft | 343 kts | 264° |
| 2026-04-25 05:26 | 34.06646 | -116.65964 | 23025 ft | 343 kts | 264° |
| 2026-04-25 05:26 | 34.06387 | -116.68825 | 22662 ft | 343 kts | 264° |
| 2026-04-25 05:26 | 34.06127 | -116.71681 | 22306 ft | 342 kts | 264° |
| 2026-04-25 05:26 | 34.05864 | -116.74518 | 21943 ft | 340 kts | 264° |
| 2026-04-25 05:27 | 34.05599 | -116.77343 | 21618 ft | 338 kts | 264° |
| 2026-04-25 05:27 | 34.05337 | -116.80154 | 21250 ft | 337 kts | 264° |
| 2026-04-25 05:27 | 34.05074 | -116.82955 | 20897 ft | 336 kts | 264° |
| 2026-04-25 05:27 | 34.04814 | -116.85719 | 20553 ft | 335 kts | 264° |
| 2026-04-25 05:28 | 34.04549 | -116.88522 | 20213 ft | 335 kts | 264° |
| 2026-04-25 05:28 | 34.04232 | -116.91310 | 19841 ft | 336 kts | 262° |
| 2026-04-25 05:28 | 34.03863 | -116.94094 | 19492 ft | 335 kts | 261° |
| 2026-04-25 05:28 | 34.03489 | -116.96865 | 19141 ft | 333 kts | 261° |
| 2026-04-25 05:29 | 34.03125 | -116.99618 | 18789 ft | 332 kts | 262° |
| 2026-04-25 05:29 | 34.02766 | -117.02364 | 18440 ft | 331 kts | 262° |
| 2026-04-25 05:29 | 34.02421 | -117.05104 | 18081 ft | 330 kts | 262° |
| 2026-04-25 05:29 | 34.02100 | -117.07840 | 17737 ft | 328 kts | 262° |
| 2026-04-25 05:30 | 34.01782 | -117.10563 | 17384 ft | 327 kts | 262° |
| 2026-04-25 05:30 | 34.01465 | -117.13264 | 17044 ft | 325 kts | 262° |
| 2026-04-25 05:30 | 34.01146 | -117.15961 | 16708 ft | 324 kts | 262° |
| 2026-04-25 05:30 | 34.00831 | -117.18609 | 16368 ft | 323 kts | 262° |
| 2026-04-25 05:31 | 34.00512 | -117.21284 | 16024 ft | 322 kts | 262° |
| 2026-04-25 05:31 | 34.00193 | -117.23960 | 15690 ft | 322 kts | 262° |
| 2026-04-25 05:31 | 33.99873 | -117.26631 | 15334 ft | 321 kts | 262° |
| 2026-04-25 05:31 | 33.99552 | -117.29297 | 15004 ft | 321 kts | 262° |
| 2026-04-25 05:32 | 33.99234 | -117.31960 | 14664 ft | 320 kts | 262° |
| 2026-04-25 05:32 | 33.98922 | -117.34609 | 14318 ft | 320 kts | 262° |
| 2026-04-25 05:32 | 33.98612 | -117.37257 | 13976 ft | 319 kts | 262° |
| 2026-04-25 05:32 | 33.98302 | -117.39899 | 13647 ft | 318 kts | 262° |
| 2026-04-25 05:33 | 33.97992 | -117.42534 | 13297 ft | 317 kts | 262° |
| 2026-04-25 05:33 | 33.97683 | -117.45155 | 12969 ft | 315 kts | 262° |
| 2026-04-25 05:33 | 33.97380 | -117.47767 | 12633 ft | 312 kts | 264° |
| 2026-04-25 05:33 | 33.97435 | -117.50318 | 12298 ft | 308 kts | 279° |
| 2026-04-25 05:34 | 33.97876 | -117.52821 | 11978 ft | 302 kts | 281° |
| 2026-04-25 05:34 | 33.98343 | -117.55271 | 11664 ft | 298 kts | 281° |
| 2026-04-25 05:34 | 33.98799 | -117.57696 | 11347 ft | 296 kts | 281° |
| 2026-04-25 05:34 | 33.99244 | -117.60127 | 11040 ft | 296 kts | 281° |
| 2026-04-25 05:35 | 33.99674 | -117.62533 | 10724 ft | 292 kts | 281° |
| 2026-04-25 05:35 | 34.00096 | -117.64910 | 10415 ft | 289 kts | 281° |
| 2026-04-25 05:35 | 34.00513 | -117.67268 | 10111 ft | 286 kts | 281° |
| 2026-04-25 05:35 | 34.00608 | -117.69621 | 9956 ft | 276 kts | 264° |
| 2026-04-25 05:36 | 34.00374 | -117.71906 | 9585 ft | 277 kts | 263° |
| 2026-04-25 05:36 | 34.00138 | -117.74201 | 9255 ft | 276 kts | 263° |
| 2026-04-25 05:36 | 33.99903 | -117.76489 | 8964 ft | 274 kts | 263° |
| 2026-04-25 05:36 | 33.99676 | -117.78752 | 8669 ft | 272 kts | 264° |
| 2026-04-25 05:37 | 33.99454 | -117.80999 | 8370 ft | 267 kts | 264° |
| 2026-04-25 05:37 | 33.99240 | -117.83172 | 8079 ft | 262 kts | 264° |
| 2026-04-25 05:37 | 33.99030 | -117.85335 | 7798 ft | 257 kts | 264° |
| 2026-04-25 05:37 | 33.98824 | -117.87458 | 7523 ft | 252 kts | 264° |
| 2026-04-25 05:38 | 33.98622 | -117.89537 | 7255 ft | 248 kts | 264° |
| 2026-04-25 05:38 | 33.98422 | -117.91582 | 6994 ft | 243 kts | 263° |
| 2026-04-25 05:38 | 33.98226 | -117.93580 | 6739 ft | 238 kts | 263° |
| 2026-04-25 05:38 | 33.98031 | -117.95548 | 6488 ft | 234 kts | 263° |
| 2026-04-25 05:39 | 33.97840 | -117.97473 | 6247 ft | 230 kts | 263° |
| 2026-04-25 05:39 | 33.97653 | -117.99363 | 6052 ft | 224 kts | 263° |
| 2026-04-25 05:39 | 33.97472 | -118.01197 | 5884 ft | 216 kts | 263° |
| 2026-04-25 05:39 | 33.97298 | -118.02947 | 5754 ft | 204 kts | 263° |
| 2026-04-25 05:40 | 33.97135 | -118.04580 | 5580 ft | 195 kts | 263° |
| 2026-04-25 05:40 | 33.96978 | -118.06171 | 5413 ft | 188 kts | 263° |
| 2026-04-25 05:40 | 33.96825 | -118.07713 | 5244 ft | 182 kts | 263° |
| 2026-04-25 05:40 | 33.96675 | -118.09215 | 5101 ft | 179 kts | 263° |
| 2026-04-25 05:41 | 33.96525 | -118.10721 | 4861 ft | 185 kts | 263° |
| 2026-04-25 05:41 | 33.96371 | -118.12272 | 4607 ft | 187 kts | 263° |
| 2026-04-25 05:41 | 33.96216 | -118.13830 | 4325 ft | 187 kts | 263° |
| 2026-04-25 05:41 | 33.96062 | -118.15374 | 4046 ft | 185 kts | 263° |
| 2026-04-25 05:42 | 33.95908 | -118.16910 | 3770 ft | 183 kts | 263° |
| 2026-04-25 05:42 | 33.95754 | -118.18433 | 3481 ft | 182 kts | 263° |
| 2026-04-25 05:42 | 33.95601 | -118.19948 | 3211 ft | 182 kts | 263° |
| 2026-04-25 05:42 | 33.95448 | -118.21431 | 2938 ft | 180 kts | 263° |
| 2026-04-25 05:43 | 33.95291 | -118.22934 | 2630 ft | 181 kts | 264° |
| 2026-04-25 05:43 | 33.95169 | -118.24431 | 2410 ft | 177 kts | 265° |
| 2026-04-25 05:43 | 33.95044 | -118.25884 | 2189 ft | 172 kts | 263° |
| 2026-04-25 05:43 | 33.94884 | -118.27286 | 1959 ft | 166 kts | 262° |
| 2026-04-25 05:44 | 33.94721 | -118.28633 | 1696 ft | 160 kts | 261° |
| 2026-04-25 05:44 | 33.94585 | -118.29971 | 1436 ft | 162 kts | 263° |
| 2026-04-25 05:44 | 33.94464 | -118.31296 | 1303 ft | 153 kts | 262° |
| 2026-04-25 05:44 | 33.94324 | -118.32522 | 1079 ft | 144 kts | 261° |
| 2026-04-25 05:45 | 33.94200 | -118.33701 | 854 ft | 141 kts | 263° |
| 2026-04-25 05:45 | 33.94085 | -118.34874 | 657 ft | 140 kts | 262° |
| 2026-04-25 05:45 | 33.93970 | -118.36051 | 492 ft | 143 kts | 262° |
| 2026-04-25 05:45 | 33.93846 | -118.37248 | 294 ft | 145 kts | 261° |
| 2026-04-25 05:46 | 33.93720 | -118.38448 | 122 ft | 143 kts | 262° |
| 2026-04-25 05:46 | 33.93613 | -118.39491 | 109 ft | 97 kts | 263° |
| 2026-04-25 05:46 | 33.93551 | -118.40031 | 110 ft | 49 kts | 254° |
| 2026-04-25 05:46 | 33.93439 | -118.40230 | 102 ft | 19 kts | 171° |
| 2026-04-25 05:47 | 33.93419 | -118.40154 | 100 ft | 9 kts | 81° |
| 2026-04-25 05:47 | 33.93429 | -118.40078 | 99 ft | 9 kts | 83° |
| 2026-04-25 05:47 | 33.93437 | -118.40002 | 100 ft | 9 kts | 81° |
| 2026-04-25 05:47 | 33.93445 | -118.39927 | 100 ft | 9 kts | 82° |
| 2026-04-25 05:48 | 33.93454 | -118.39837 | 100 ft | 18 kts | 83° |
| 2026-04-25 05:48 | 33.93472 | -118.39658 | 100 ft | 22 kts | 82° |
| 2026-04-25 05:48 | 33.93491 | -118.39475 | 100 ft | 22 kts | 82° |
| 2026-04-25 05:48 | 33.93509 | -118.39297 | 98 ft | 21 kts | 83° |
| 2026-04-25 05:49 | 33.93528 | -118.39124 | 99 ft | 20 kts | 82° |
| 2026-04-25 05:49 | 33.93544 | -118.38957 | 99 ft | 20 kts | 83° |
| 2026-04-25 05:49 | 33.93561 | -118.38795 | 99 ft | 19 kts | 82° |
| 2026-04-25 05:49 | 33.93577 | -118.38638 | 99 ft | 19 kts | 83° |
| 2026-04-25 05:50 | 33.93564 | -118.38516 | 99 ft | 14 kts | 149° |
| 2026-04-25 05:50 | 33.93504 | -118.38529 | 96 ft | 7 kts | 242° |
| 2026-04-25 05:50 | 33.93497 | -118.38585 | 96 ft | 0 kts | 268° |
| 2026-04-25 05:50 | 33.93497 | -118.38589 | 96 ft | 0 kts | 268° |